Moro, Oregon
Current Conditions -  °F | °C
As of 11:53 AM on Sunday 23 Nov 2014 (Local Time) from KDLS Reporting Station
Few Clouds Few Clouds  
Wind Chill: 59°   Ceiling: Unl
Heat Index: 59°   Visibility: 10mi
Dew Point: 35°   Wind: 22mph
Humidity: 41%   Direction: 260°W
Pressure: 30.15"   Gusts: 28mph
Location:  45.48°N, 120.73°W
Report Text: KDLS 231953Z AUTO 26019G24KT 10SM FEW060 15/02 A3015 RMK AO2 PK WND 26030/1922 SLP210 T01500017 $
Loading
Personal Weather Stations






























Interactive Weather Map New forecast layout! Learn more

10-Day Weather Forecast

Advertisements
Track Severe Weather on mobile